sensor_id;sensor_type;location;lat;lon;timestamp;temperature;humidity
10192;DHT22;17580;50.850;4.504;2022-07-29T00:00:13;19.10;43.10
10192;DHT22;17580;50.850;4.504;2022-07-29T00:02:40;19.10;43.70
10192;DHT22;17580;50.850;4.504;2022-07-29T00:05:08;19.10;43.80
10192;DHT22;17580;50.850;4.504;2022-07-29T00:07:35;19.10;44.20
10192;DHT22;17580;50.850;4.504;2022-07-29T00:10:03;19.10;44.30
10192;DHT22;17580;50.850;4.504;2022-07-29T00:12:30;19.10;43.80
10192;DHT22;17580;50.850;4.504;2022-07-29T00:14:58;19.00;44.60
10192;DHT22;17580;50.850;4.504;2022-07-29T00:17:25;19.00;44.90
10192;DHT22;17580;50.850;4.504;2022-07-29T00:19:52;19.00;45.20
10192;DHT22;17580;50.850;4.504;2022-07-29T00:22:20;19.00;45.30
10192;DHT22;17580;50.850;4.504;2022-07-29T00:24:48;19.00;44.80
10192;DHT22;17580;50.850;4.504;2022-07-29T00:27:15;18.90;44.90
10192;DHT22;17580;50.850;4.504;2022-07-29T00:29:42;19.00;45.60
10192;DHT22;17580;50.850;4.504;2022-07-29T00:32:10;18.90;45.80
10192;DHT22;17580;50.850;4.504;2022-07-29T00:34:39;18.90;45.30
10192;DHT22;17580;50.850;4.504;2022-07-29T00:37:19;18.90;45.90
10192;DHT22;17580;50.850;4.504;2022-07-29T00:39:46;18.90;45.60
10192;DHT22;17580;50.850;4.504;2022-07-29T00:42:13;18.70;46.10
10192;DHT22;17580;50.850;4.504;2022-07-29T00:44:42;18.70;46.10
10192;DHT22;17580;50.850;4.504;2022-07-29T00:47:11;18.70;47.30
10192;DHT22;17580;50.850;4.504;2022-07-29T00:49:39;18.70;46.50
10192;DHT22;17580;50.850;4.504;2022-07-29T00:52:08;18.60;47.10
10192;DHT22;17580;50.850;4.504;2022-07-29T00:54:35;18.60;47.90
10192;DHT22;17580;50.850;4.504;2022-07-29T00:57:02;18.60;47.60
10192;DHT22;17580;50.850;4.504;2022-07-29T00:59:29;18.50;48.10
10192;DHT22;17580;50.850;4.504;2022-07-29T01:01:56;18.40;48.70
10192;DHT22;17580;50.850;4.504;2022-07-29T01:04:24;18.40;48.90
10192;DHT22;17580;50.850;4.504;2022-07-29T01:06:54;18.30;50.40
10192;DHT22;17580;50.850;4.504;2022-07-29T01:09:21;18.30;50.30
10192;DHT22;17580;50.850;4.504;2022-07-29T01:11:48;18.30;50.30
10192;DHT22;17580;50.850;4.504;2022-07-29T01:14:16;18.20;51.30
10192;DHT22;17580;50.850;4.504;2022-07-29T01:16:49;18.10;52.70
10192;DHT22;17580;50.850;4.504;2022-07-29T01:19:34;18.10;54.90
10192;DHT22;17580;50.850;4.504;2022-07-29T01:22:25;18.00;56.20
10192;DHT22;17580;50.850;4.504;2022-07-29T01:25:05;17.90;57.00
10192;DHT22;17580;50.850;4.504;2022-07-29T01:27:44;17.90;57.30
10192;DHT22;17580;50.850;4.504;2022-07-29T01:30:17;17.80;58.90
10192;DHT22;17580;50.850;4.504;2022-07-29T01:32:47;17.80;58.70
10192;DHT22;17580;50.850;4.504;2022-07-29T01:35:20;17.70;59.40
10192;DHT22;17580;50.850;4.504;2022-07-29T01:37:51;17.70;58.50
10192;DHT22;17580;50.850;4.504;2022-07-29T01:40:25;17.80;58.10
10192;DHT22;17580;50.850;4.504;2022-07-29T01:42:56;17.80;58.50
10192;DHT22;17580;50.850;4.504;2022-07-29T01:45:30;17.80;61.30
10192;DHT22;17580;50.850;4.504;2022-07-29T01:48:05;17.80;63.40
10192;DHT22;17580;50.850;4.504;2022-07-29T01:50:35;17.80;62.10
10192;DHT22;17580;50.850;4.504;2022-07-29T01:53:07;17.80;60.00
10192;DHT22;17580;50.850;4.504;2022-07-29T01:55:38;17.80;60.30
10192;DHT22;17580;50.850;4.504;2022-07-29T01:58:05;17.70;60.10
10192;DHT22;17580;50.850;4.504;2022-07-29T02:00:34;17.70;59.40
10192;DHT22;17580;50.850;4.504;2022-07-29T02:03:05;17.70;60.00
10192;DHT22;17580;50.850;4.504;2022-07-29T02:05:34;17.60;61.90
10192;DHT22;17580;50.850;4.504;2022-07-29T02:08:02;17.60;62.00
10192;DHT22;17580;50.850;4.504;2022-07-29T02:10:32;17.60;63.10
10192;DHT22;17580;50.850;4.504;2022-07-29T02:13:01;17.50;62.90
10192;DHT22;17580;50.850;4.504;2022-07-29T02:15:30;17.40;65.10
10192;DHT22;17580;50.850;4.504;2022-07-29T02:18:01;17.30;66.10
10192;DHT22;17580;50.850;4.504;2022-07-29T02:20:30;17.20;68.80
10192;DHT22;17580;50.850;4.504;2022-07-29T02:22:57;17.10;70.30
10192;DHT22;17580;50.850;4.504;2022-07-29T02:25:26;17.10;70.60
10192;DHT22;17580;50.850;4.504;2022-07-29T02:27:54;17.00;71.90
10192;DHT22;17580;50.850;4.504;2022-07-29T02:30:23;16.90;73.10
10192;DHT22;17580;50.850;4.504;2022-07-29T02:32:51;16.90;73.80
10192;DHT22;17580;50.850;4.504;2022-07-29T02:35:20;16.90;72.30
10192;DHT22;17580;50.850;4.504;2022-07-29T02:37:47;16.80;73.20
10192;DHT22;17580;50.850;4.504;2022-07-29T02:40:38;16.80;75.40
10192;DHT22;17580;50.850;4.504;2022-07-29T02:43:06;16.60;78.90
10192;DHT22;17580;50.850;4.504;2022-07-29T02:45:34;16.60;78.40
10192;DHT22;17580;50.850;4.504;2022-07-29T02:48:06;16.50;78.80
10192;DHT22;17580;50.850;4.504;2022-07-29T02:50:39;16.50;78.90
10192;DHT22;17580;50.850;4.504;2022-07-29T02:53:12;16.50;77.20
10192;DHT22;17580;50.850;4.504;2022-07-29T02:55:45;16.50;81.10
10192;DHT22;17580;50.850;4.504;2022-07-29T02:58:15;16.50;80.10
10192;DHT22;17580;50.850;4.504;2022-07-29T03:00:47;16.50;80.00
10192;DHT22;17580;50.850;4.504;2022-07-29T03:03:16;16.40;83.00
10192;DHT22;17580;50.850;4.504;2022-07-29T03:05:45;16.40;81.60
10192;DHT22;17580;50.850;4.504;2022-07-29T03:08:14;16.40;81.20
10192;DHT22;17580;50.850;4.504;2022-07-29T03:10:44;16.40;82.90
10192;DHT22;17580;50.850;4.504;2022-07-29T03:13:12;16.40;85.10
10192;DHT22;17580;50.850;4.504;2022-07-29T03:15:40;16.40;83.00
10192;DHT22;17580;50.850;4.504;2022-07-29T03:18:09;16.40;84.30
10192;DHT22;17580;50.850;4.504;2022-07-29T03:20:37;16.30;85.10
10192;DHT22;17580;50.850;4.504;2022-07-29T03:23:05;16.30;87.40
10192;DHT22;17580;50.850;4.504;2022-07-29T03:25:32;16.10;89.00
10192;DHT22;17580;50.850;4.504;2022-07-29T03:27:59;16.20;88.80
10192;DHT22;17580;50.850;4.504;2022-07-29T03:30:26;16.20;87.80
10192;DHT22;17580;50.850;4.504;2022-07-29T03:32:56;16.10;87.90
10192;DHT22;17580;50.850;4.504;2022-07-29T03:35:23;16.10;88.00
10192;DHT22;17580;50.850;4.504;2022-07-29T03:37:50;16.10;88.10
10192;DHT22;17580;50.850;4.504;2022-07-29T03:40:21;16.00;89.20
10192;DHT22;17580;50.850;4.504;2022-07-29T03:42:50;16.00;90.00
10192;DHT22;17580;50.850;4.504;2022-07-29T03:45:19;16.00;90.40
10192;DHT22;17580;50.850;4.504;2022-07-29T03:47:50;16.00;88.80
10192;DHT22;17580;50.850;4.504;2022-07-29T03:50:17;15.90;91.00
10192;DHT22;17580;50.850;4.504;2022-07-29T03:52:46;15.90;92.50
10192;DHT22;17580;50.850;4.504;2022-07-29T03:55:14;15.80;90.90
10192;DHT22;17580;50.850;4.504;2022-07-29T03:57:44;15.80;91.90
10192;DHT22;17580;50.850;4.504;2022-07-29T04:00:12;15.80;92.80
10192;DHT22;17580;50.850;4.504;2022-07-29T04:02:41;15.70;93.20
10192;DHT22;17580;50.850;4.504;2022-07-29T04:05:12;15.70;92.60
10192;DHT22;17580;50.850;4.504;2022-07-29T04:07:39;15.80;91.60
10192;DHT22;17580;50.850;4.504;2022-07-29T04:10:06;15.80;92.60
10192;DHT22;17580;50.850;4.504;2022-07-29T04:12:33;15.80;93.20
10192;DHT22;17580;50.850;4.504;2022-07-29T04:15:02;15.70;91.60
10192;DHT22;17580;50.850;4.504;2022-07-29T04:17:29;15.70;91.90
10192;DHT22;17580;50.850;4.504;2022-07-29T04:19:56;15.60;92.60
10192;DHT22;17580;50.850;4.504;2022-07-29T04:22:23;15.60;94.20
10192;DHT22;17580;50.850;4.504;2022-07-29T04:24:50;15.60;93.80
10192;DHT22;17580;50.850;4.504;2022-07-29T04:27:17;15.80;92.10
10192;DHT22;17580;50.850;4.504;2022-07-29T04:29:43;15.80;93.50
10192;DHT22;17580;50.850;4.504;2022-07-29T04:32:12;15.60;94.00
10192;DHT22;17580;50.850;4.504;2022-07-29T04:34:39;15.60;96.30
10192;DHT22;17580;50.850;4.504;2022-07-29T04:37:06;15.50;95.20
10192;DHT22;17580;50.850;4.504;2022-07-29T04:39:32;15.50;95.80
10192;DHT22;17580;50.850;4.504;2022-07-29T04:41:59;15.50;96.90
10192;DHT22;17580;50.850;4.504;2022-07-29T04:44:26;15.60;97.50
10192;DHT22;17580;50.850;4.504;2022-07-29T04:46:54;15.60;97.60
10192;DHT22;17580;50.850;4.504;2022-07-29T04:49:22;15.70;97.30
10192;DHT22;17580;50.850;4.504;2022-07-29T04:51:49;15.70;98.10
10192;DHT22;17580;50.850;4.504;2022-07-29T04:54:16;15.70;98.50
10192;DHT22;17580;50.850;4.504;2022-07-29T04:56:43;15.70;99.20
10192;DHT22;17580;50.850;4.504;2022-07-29T04:59:11;15.70;97.10
10192;DHT22;17580;50.850;4.504;2022-07-29T05:01:38;15.70;97.30
10192;DHT22;17580;50.850;4.504;2022-07-29T05:04:05;15.80;97.10
10192;DHT22;17580;50.850;4.504;2022-07-29T05:06:34;15.90;96.80
10192;DHT22;17580;50.850;4.504;2022-07-29T05:09:00;15.80;96.70
10192;DHT22;17580;50.850;4.504;2022-07-29T05:11:30;15.90;96.70
10192;DHT22;17580;50.850;4.504;2022-07-29T05:13:57;15.90;96.50
10192;DHT22;17580;50.850;4.504;2022-07-29T05:16:24;16.00;98.50
10192;DHT22;17580;50.850;4.504;2022-07-29T05:18:51;16.00;99.60
10192;DHT22;17580;50.850;4.504;2022-07-29T05:21:18;16.00;99.40
10192;DHT22;17580;50.850;4.504;2022-07-29T05:23:46;16.10;98.30
10192;DHT22;17580;50.850;4.504;2022-07-29T05:26:13;16.10;96.00
10192;DHT22;17580;50.850;4.504;2022-07-29T05:28:40;16.20;97.60
10192;DHT22;17580;50.850;4.504;2022-07-29T05:31:06;16.20;97.30
10192;DHT22;17580;50.850;4.504;2022-07-29T05:33:34;16.20;96.90
10192;DHT22;17580;50.850;4.504;2022-07-29T05:36:00;16.30;95.80
10192;DHT22;17580;50.850;4.504;2022-07-29T05:38:28;16.30;97.00
10192;DHT22;17580;50.850;4.504;2022-07-29T05:40:58;16.50;97.00
10192;DHT22;17580;50.850;4.504;2022-07-29T05:43:25;16.60;93.60
10192;DHT22;17580;50.850;4.504;2022-07-29T05:45:51;16.80;94.30
10192;DHT22;17580;50.850;4.504;2022-07-29T05:48:18;16.90;91.60
10192;DHT22;17580;50.850;4.504;2022-07-29T05:50:46;17.00;91.30
10192;DHT22;17580;50.850;4.504;2022-07-29T05:53:13;17.20;93.90
10192;DHT22;17580;50.850;4.504;2022-07-29T05:55:39;17.20;90.10
10192;DHT22;17580;50.850;4.504;2022-07-29T05:58:08;17.20;86.70
10192;DHT22;17580;50.850;4.504;2022-07-29T06:00:34;17.20;85.80
10192;DHT22;17580;50.850;4.504;2022-07-29T06:03:01;17.20;89.90
10192;DHT22;17580;50.850;4.504;2022-07-29T06:05:28;17.10;88.40
10192;DHT22;17580;50.850;4.504;2022-07-29T06:07:55;17.10;88.30
10192;DHT22;17580;50.850;4.504;2022-07-29T06:10:22;17.20;93.00
10192;DHT22;17580;50.850;4.504;2022-07-29T06:12:50;17.10;93.80
10192;DHT22;17580;50.850;4.504;2022-07-29T06:15:18;17.20;94.60
10192;DHT22;17580;50.850;4.504;2022-07-29T06:17:45;17.20;90.90
10192;DHT22;17580;50.850;4.504;2022-07-29T06:20:12;17.20;90.00
10192;DHT22;17580;50.850;4.504;2022-07-29T06:22:39;17.20;89.50
10192;DHT22;17580;50.850;4.504;2022-07-29T06:25:06;17.20;91.60
10192;DHT22;17580;50.850;4.504;2022-07-29T06:27:33;17.20;90.40
10192;DHT22;17580;50.850;4.504;2022-07-29T06:30:00;17.30;90.60
10192;DHT22;17580;50.850;4.504;2022-07-29T06:32:28;17.30;90.80
10192;DHT22;17580;50.850;4.504;2022-07-29T06:34:56;17.30;91.40
10192;DHT22;17580;50.850;4.504;2022-07-29T06:37:23;17.30;88.70
10192;DHT22;17580;50.850;4.504;2022-07-29T06:39:50;17.40;92.10
10192;DHT22;17580;50.850;4.504;2022-07-29T06:42:37;17.40;91.50
10192;DHT22;17580;50.850;4.504;2022-07-29T06:45:08;17.40;91.20
10192;DHT22;17580;50.850;4.504;2022-07-29T06:47:37;17.50;93.10
10192;DHT22;17580;50.850;4.504;2022-07-29T06:50:05;17.50;89.00
10192;DHT22;17580;50.850;4.504;2022-07-29T06:52:32;17.60;91.90
10192;DHT22;17580;50.850;4.504;2022-07-29T06:54:59;17.60;91.00
10192;DHT22;17580;50.850;4.504;2022-07-29T06:57:26;17.60;90.70
10192;DHT22;17580;50.850;4.504;2022-07-29T06:59:56;17.70;92.70
10192;DHT22;17580;50.850;4.504;2022-07-29T07:02:23;17.80;91.40
10192;DHT22;17580;50.850;4.504;2022-07-29T07:04:51;17.80;87.30
10192;DHT22;17580;50.850;4.504;2022-07-29T07:07:18;17.90;88.70
10192;DHT22;17580;50.850;4.504;2022-07-29T07:09:45;17.90;88.00
10192;DHT22;17580;50.850;4.504;2022-07-29T07:12:12;18.10;91.70
10192;DHT22;17580;50.850;4.504;2022-07-29T07:14:39;18.30;88.50
10192;DHT22;17580;50.850;4.504;2022-07-29T07:17:06;18.50;87.20
10192;DHT22;17580;50.850;4.504;2022-07-29T07:19:33;18.70;78.90
10192;DHT22;17580;50.850;4.504;2022-07-29T07:22:01;19.00;80.10
10192;DHT22;17580;50.850;4.504;2022-07-29T07:24:28;19.20;73.50
10192;DHT22;17580;50.850;4.504;2022-07-29T07:26:55;19.40;71.70
10192;DHT22;17580;50.850;4.504;2022-07-29T07:29:22;19.50;70.60
10192;DHT22;17580;50.850;4.504;2022-07-29T07:31:49;19.60;69.70
10192;DHT22;17580;50.850;4.504;2022-07-29T07:34:16;19.60;69.60
10192;DHT22;17580;50.850;4.504;2022-07-29T07:36:43;19.60;67.20
10192;DHT22;17580;50.850;4.504;2022-07-29T07:39:11;19.50;67.10
10192;DHT22;17580;50.850;4.504;2022-07-29T07:41:38;19.50;68.40
10192;DHT22;17580;50.850;4.504;2022-07-29T07:44:05;19.50;68.80
10192;DHT22;17580;50.850;4.504;2022-07-29T07:46:32;19.50;68.80
10192;DHT22;17580;50.850;4.504;2022-07-29T07:48:59;19.60;70.60
10192;DHT22;17580;50.850;4.504;2022-07-29T07:51:25;19.60;69.70
10192;DHT22;17580;50.850;4.504;2022-07-29T07:53:53;19.80;70.60
10192;DHT22;17580;50.850;4.504;2022-07-29T07:56:21;19.90;67.90
10192;DHT22;17580;50.850;4.504;2022-07-29T07:58:48;20.00;68.40
10192;DHT22;17580;50.850;4.504;2022-07-29T08:01:15;19.90;63.80
10192;DHT22;17580;50.850;4.504;2022-07-29T08:03:44;19.80;64.80
10192;DHT22;17580;50.850;4.504;2022-07-29T08:06:11;19.80;65.80
10192;DHT22;17580;50.850;4.504;2022-07-29T08:08:38;19.80;69.30
10192;DHT22;17580;50.850;4.504;2022-07-29T08:11:05;19.80;68.70
10192;DHT22;17580;50.850;4.504;2022-07-29T08:13:33;19.90;67.70
10192;DHT22;17580;50.850;4.504;2022-07-29T08:16:00;19.90;67.80
10192;DHT22;17580;50.850;4.504;2022-07-29T08:18:30;19.80;64.50
10192;DHT22;17580;50.850;4.504;2022-07-29T08:20:57;19.90;65.20
10192;DHT22;17580;50.850;4.504;2022-07-29T08:23:24;19.90;64.80
10192;DHT22;17580;50.850;4.504;2022-07-29T08:25:52;19.90;64.50
10192;DHT22;17580;50.850;4.504;2022-07-29T08:28:19;20.00;63.90
10192;DHT22;17580;50.850;4.504;2022-07-29T08:30:47;20.20;65.60
10192;DHT22;17580;50.850;4.504;2022-07-29T08:33:14;20.20;66.50
10192;DHT22;17580;50.850;4.504;2022-07-29T08:35:41;20.20;63.20
10192;DHT22;17580;50.850;4.504;2022-07-29T08:38:08;20.30;64.80
10192;DHT22;17580;50.850;4.504;2022-07-29T08:40:35;20.40;63.30
10192;DHT22;17580;50.850;4.504;2022-07-29T08:43:05;20.40;61.90
10192;DHT22;17580;50.850;4.504;2022-07-29T08:45:42;20.50;62.10
10192;DHT22;17580;50.850;4.504;2022-07-29T08:48:12;20.60;61.40
10192;DHT22;17580;50.850;4.504;2022-07-29T08:50:40;20.60;60.20
10192;DHT22;17580;50.850;4.504;2022-07-29T08:53:11;20.70;61.50
10192;DHT22;17580;50.850;4.504;2022-07-29T08:55:39;20.80;59.80
10192;DHT22;17580;50.850;4.504;2022-07-29T08:58:07;20.90;59.70
10192;DHT22;17580;50.850;4.504;2022-07-29T09:00:35;20.90;58.90
10192;DHT22;17580;50.850;4.504;2022-07-29T09:03:04;21.00;57.80
10192;DHT22;17580;50.850;4.504;2022-07-29T09:05:33;21.10;57.70
10192;DHT22;17580;50.850;4.504;2022-07-29T09:08:01;21.20;57.40
10192;DHT22;17580;50.850;4.504;2022-07-29T09:10:28;21.30;57.40
10192;DHT22;17580;50.850;4.504;2022-07-29T09:12:55;21.50;57.40
10192;DHT22;17580;50.850;4.504;2022-07-29T09:15:22;21.60;56.70
10192;DHT22;17580;50.850;4.504;2022-07-29T09:17:50;22.20;55.80
10192;DHT22;17580;50.850;4.504;2022-07-29T09:20:17;22.40;53.00
10192;DHT22;17580;50.850;4.504;2022-07-29T09:22:46;22.70;52.30
10192;DHT22;17580;50.850;4.504;2022-07-29T09:25:15;23.10;51.40
10192;DHT22;17580;50.850;4.504;2022-07-29T09:28:05;23.80;50.00
10192;DHT22;17580;50.850;4.504;2022-07-29T09:30:32;25.20;42.90
10192;DHT22;17580;50.850;4.504;2022-07-29T09:33:01;26.20;41.30
10192;DHT22;17580;50.850;4.504;2022-07-29T09:35:28;26.80;37.50
10192;DHT22;17580;50.850;4.504;2022-07-29T09:37:57;27.30;34.80
10192;DHT22;17580;50.850;4.504;2022-07-29T09:40:26;27.90;32.90
10192;DHT22;17580;50.850;4.504;2022-07-29T09:42:54;28.50;29.10
10192;DHT22;17580;50.850;4.504;2022-07-29T09:45:29;28.80;28.30
10192;DHT22;17580;50.850;4.504;2022-07-29T09:47:57;29.10;28.30
10192;DHT22;17580;50.850;4.504;2022-07-29T09:50:36;29.60;25.30
10192;DHT22;17580;50.850;4.504;2022-07-29T09:53:04;30.10;24.80
10192;DHT22;17580;50.850;4.504;2022-07-29T09:55:32;30.40;23.20
10192;DHT22;17580;50.850;4.504;2022-07-29T09:58:14;30.40;22.10
10192;DHT22;17580;50.850;4.504;2022-07-29T10:00:42;31.00;20.90
10192;DHT22;17580;50.850;4.504;2022-07-29T10:03:09;31.20;20.30
10192;DHT22;17580;50.850;4.504;2022-07-29T10:05:37;31.40;20.80
10192;DHT22;17580;50.850;4.504;2022-07-29T10:08:06;31.60;19.30
10192;DHT22;17580;50.850;4.504;2022-07-29T10:10:36;31.80;17.30
10192;DHT22;17580;50.850;4.504;2022-07-29T10:13:05;31.70;17.70
10192;DHT22;17580;50.850;4.504;2022-07-29T10:15:33;32.10;16.70
10192;DHT22;17580;50.850;4.504;2022-07-29T10:18:03;32.30;16.10
10192;DHT22;17580;50.850;4.504;2022-07-29T10:20:30;32.40;15.80
10192;DHT22;17580;50.850;4.504;2022-07-29T10:22:58;32.80;14.50
10192;DHT22;17580;50.850;4.504;2022-07-29T10:25:27;33.00;14.90
10192;DHT22;17580;50.850;4.504;2022-07-29T10:27:54;33.00;14.90
10192;DHT22;17580;50.850;4.504;2022-07-29T10:30:23;33.30;12.60
10192;DHT22;17580;50.850;4.504;2022-07-29T10:33:10;33.00;12.50
10192;DHT22;17580;50.850;4.504;2022-07-29T10:35:56;33.10;12.30
10192;DHT22;17580;50.850;4.504;2022-07-29T10:38:43;33.40;10.60
10192;DHT22;17580;50.850;4.504;2022-07-29T10:41:19;33.50;9.70
10192;DHT22;17580;50.850;4.504;2022-07-29T10:43:56;33.60;11.20
10192;DHT22;17580;50.850;4.504;2022-07-29T10:46:24;33.40;9.30
10192;DHT22;17580;50.850;4.504;2022-07-29T10:49:11;33.60;8.00
10192;DHT22;17580;50.850;4.504;2022-07-29T10:52:00;33.40;7.10
10192;DHT22;17580;50.850;4.504;2022-07-29T10:54:48;32.10;6.30
10192;DHT22;17580;50.850;4.504;2022-07-29T10:57:28;32.10;8.00
10192;DHT22;17580;50.850;4.504;2022-07-29T11:00:30;31.20;6.20
10192;DHT22;17580;50.850;4.504;2022-07-29T11:02:57;31.80;7.10
10192;DHT22;17580;50.850;4.504;2022-07-29T11:05:25;32.50;7.10
10192;DHT22;17580;50.850;4.504;2022-07-29T11:08:16;33.20;5.20
10192;DHT22;17580;50.850;4.504;2022-07-29T11:10:45;33.70;6.00
10192;DHT22;17580;50.850;4.504;2022-07-29T11:13:49;33.90;5.80
10192;DHT22;17580;50.850;4.504;2022-07-29T11:16:18;34.10;5.20
10192;DHT22;17580;50.850;4.504;2022-07-29T11:19:21;34.40;3.50
10192;DHT22;17580;50.850;4.504;2022-07-29T11:21:48;33.80;3.30
10192;DHT22;17580;50.850;4.504;2022-07-29T11:24:18;33.90;4.30
10192;DHT22;17580;50.850;4.504;2022-07-29T11:27:09;33.90;3.70
10192;DHT22;17580;50.850;4.504;2022-07-29T11:29:47;32.90;4.20
10192;DHT22;17580;50.850;4.504;2022-07-29T11:32:15;32.10;3.80
10192;DHT22;17580;50.850;4.504;2022-07-29T11:34:46;32.00;2.50
10192;DHT22;17580;50.850;4.504;2022-07-29T11:37:23;31.30;1.60
10192;DHT22;17580;50.850;4.504;2022-07-29T11:40:20;30.30;3.10
10192;DHT22;17580;50.850;4.504;2022-07-29T11:42:48;29.80;5.40
10192;DHT22;17580;50.850;4.504;2022-07-29T11:45:22;29.60;5.40
10192;DHT22;17580;50.850;4.504;2022-07-29T11:47:54;29.30;6.80
10192;DHT22;17580;50.850;4.504;2022-07-29T11:50:29;28.90;5.10
10192;DHT22;17580;50.850;4.504;2022-07-29T11:52:56;28.80;6.60
10192;DHT22;17580;50.850;4.504;2022-07-29T11:55:26;28.40;6.70
10192;DHT22;17580;50.850;4.504;2022-07-29T11:57:56;28.40;8.50
10192;DHT22;17580;50.850;4.504;2022-07-29T12:00:28;29.40;9.80
10192;DHT22;17580;50.850;4.504;2022-07-29T12:02:56;29.60;9.70
10192;DHT22;17580;50.850;4.504;2022-07-29T12:05:33;29.90;7.90
10192;DHT22;17580;50.850;4.504;2022-07-29T12:08:12;29.50;9.00
10192;DHT22;17580;50.850;4.504;2022-07-29T12:10:39;29.00;8.30
10192;DHT22;17580;50.850;4.504;2022-07-29T12:13:06;28.60;9.20
10192;DHT22;17580;50.850;4.504;2022-07-29T12:15:35;28.00;8.40
10192;DHT22;17580;50.850;4.504;2022-07-29T12:18:14;27.70;9.40
10192;DHT22;17580;50.850;4.504;2022-07-29T12:20:41;28.00;9.90
10192;DHT22;17580;50.850;4.504;2022-07-29T12:23:09;29.40;8.60
10192;DHT22;17580;50.850;4.504;2022-07-29T12:25:38;29.40;7.10
10192;DHT22;17580;50.850;4.504;2022-07-29T12:28:07;28.80;8.00
10192;DHT22;17580;50.850;4.504;2022-07-29T12:30:38;28.30;7.90
10192;DHT22;17580;50.850;4.504;2022-07-29T12:33:14;29.30;8.70
10192;DHT22;17580;50.850;4.504;2022-07-29T12:35:42;30.00;6.90
10192;DHT22;17580;50.850;4.504;2022-07-29T12:38:11;30.40;6.50
10192;DHT22;17580;50.850;4.504;2022-07-29T12:40:38;29.70;6.80
10192;DHT22;17580;50.850;4.504;2022-07-29T12:43:07;29.30;8.10
10192;DHT22;17580;50.850;4.504;2022-07-29T12:45:36;30.00;5.90
10192;DHT22;17580;50.850;4.504;2022-07-29T12:48:03;30.90;7.80
10192;DHT22;17580;50.850;4.504;2022-07-29T12:50:31;30.80;3.50
10192;DHT22;17580;50.850;4.504;2022-07-29T12:53:08;31.40;4.80
10192;DHT22;17580;50.850;4.504;2022-07-29T12:55:44;31.10;4.00
10192;DHT22;17580;50.850;4.504;2022-07-29T12:58:25;30.10;3.80
10192;DHT22;17580;50.850;4.504;2022-07-29T13:01:01;30.30;3.90
10192;DHT22;17580;50.850;4.504;2022-07-29T13:03:28;31.00;4.00
10192;DHT22;17580;50.850;4.504;2022-07-29T13:05:55;31.40;5.20
10192;DHT22;17580;50.850;4.504;2022-07-29T13:08:22;30.70;4.60
10192;DHT22;17580;50.850;4.504;2022-07-29T13:10:49;29.70;3.90
10192;DHT22;17580;50.850;4.504;2022-07-29T13:13:16;29.20;4.40
10192;DHT22;17580;50.850;4.504;2022-07-29T13:15:44;29.00;4.30
10192;DHT22;17580;50.850;4.504;2022-07-29T13:18:30;28.60;4.40
10192;DHT22;17580;50.850;4.504;2022-07-29T13:21:10;28.30;4.80
10192;DHT22;17580;50.850;4.504;2022-07-29T13:23:37;28.20;6.80
10192;DHT22;17580;50.850;4.504;2022-07-29T13:26:05;27.70;4.80
10192;DHT22;17580;50.850;4.504;2022-07-29T13:28:32;27.70;4.60
10192;DHT22;17580;50.850;4.504;2022-07-29T13:30:59;28.10;4.80
10192;DHT22;17580;50.850;4.504;2022-07-29T13:33:26;28.10;5.30
10192;DHT22;17580;50.850;4.504;2022-07-29T13:35:55;28.10;5.30
10192;DHT22;17580;50.850;4.504;2022-07-29T13:38:22;28.00;6.50
10192;DHT22;17580;50.850;4.504;2022-07-29T13:40:48;27.70;5.80
10192;DHT22;17580;50.850;4.504;2022-07-29T13:43:16;27.40;7.10
10192;DHT22;17580;50.850;4.504;2022-07-29T13:45:42;27.30;7.00
10192;DHT22;17580;50.850;4.504;2022-07-29T13:48:09;27.30;6.20
10192;DHT22;17580;50.850;4.504;2022-07-29T13:50:37;27.40;7.40
10192;DHT22;17580;50.850;4.504;2022-07-29T13:53:05;27.40;8.90
10192;DHT22;17580;50.850;4.504;2022-07-29T13:55:32;27.50;10.30
10192;DHT22;17580;50.850;4.504;2022-07-29T13:57:59;27.40;6.70
10192;DHT22;17580;50.850;4.504;2022-07-29T14:00:26;27.30;8.40
10192;DHT22;17580;50.850;4.504;2022-07-29T14:02:54;27.20;8.30
10192;DHT22;17580;50.850;4.504;2022-07-29T14:05:21;27.00;9.30
10192;DHT22;17580;50.850;4.504;2022-07-29T14:07:47;26.90;10.00
10192;DHT22;17580;50.850;4.504;2022-07-29T14:10:16;26.70;10.50
10192;DHT22;17580;50.850;4.504;2022-07-29T14:12:42;26.70;10.80
10192;DHT22;17580;50.850;4.504;2022-07-29T14:15:09;26.50;9.20
10192;DHT22;17580;50.850;4.504;2022-07-29T14:17:36;26.50;9.80
10192;DHT22;17580;50.850;4.504;2022-07-29T14:20:04;26.80;11.30
10192;DHT22;17580;50.850;4.504;2022-07-29T14:22:31;27.20;9.20
10192;DHT22;17580;50.850;4.504;2022-07-29T14:24:59;27.60;7.90
10192;DHT22;17580;50.850;4.504;2022-07-29T14:27:27;28.20;9.40
10192;DHT22;17580;50.850;4.504;2022-07-29T14:29:54;28.50;6.90
10192;DHT22;17580;50.850;4.504;2022-07-29T14:32:21;28.90;7.60
10192;DHT22;17580;50.850;4.504;2022-07-29T14:34:48;29.00;6.80
10192;DHT22;17580;50.850;4.504;2022-07-29T14:37:14;29.00;5.40
10192;DHT22;17580;50.850;4.504;2022-07-29T14:39:42;29.10;7.60
10192;DHT22;17580;50.850;4.504;2022-07-29T14:42:09;29.00;4.90
10192;DHT22;17580;50.850;4.504;2022-07-29T14:44:37;28.30;2.90
10192;DHT22;17580;50.850;4.504;2022-07-29T14:47:04;27.80;4.70
10192;DHT22;17580;50.850;4.504;2022-07-29T14:49:31;27.50;5.40
10192;DHT22;17580;50.850;4.504;2022-07-29T14:51:58;27.60;7.10
10192;DHT22;17580;50.850;4.504;2022-07-29T14:54:25;28.00;6.60
10192;DHT22;17580;50.850;4.504;2022-07-29T14:56:51;28.10;5.00
10192;DHT22;17580;50.850;4.504;2022-07-29T14:59:22;28.10;5.00
10192;DHT22;17580;50.850;4.504;2022-07-29T15:01:50;28.30;5.10
10192;DHT22;17580;50.850;4.504;2022-07-29T15:04:17;28.40;3.60
10192;DHT22;17580;50.850;4.504;2022-07-29T15:06:44;28.40;4.40
10192;DHT22;17580;50.850;4.504;2022-07-29T15:09:11;28.30;3.40
10192;DHT22;17580;50.850;4.504;2022-07-29T15:11:40;28.30;4.20
10192;DHT22;17580;50.850;4.504;2022-07-29T15:14:07;28.30;2.80
10192;DHT22;17580;50.850;4.504;2022-07-29T15:16:37;28.10;4.20
10192;DHT22;17580;50.850;4.504;2022-07-29T15:19:09;28.10;4.40
10192;DHT22;17580;50.850;4.504;2022-07-29T15:21:36;28.20;3.90
10192;DHT22;17580;50.850;4.504;2022-07-29T15:24:03;28.10;4.50
10192;DHT22;17580;50.850;4.504;2022-07-29T15:26:30;28.20;4.50
10192;DHT22;17580;50.850;4.504;2022-07-29T15:28:58;28.10;4.80
10192;DHT22;17580;50.850;4.504;2022-07-29T15:31:25;28.10;5.40
10192;DHT22;17580;50.850;4.504;2022-07-29T15:33:53;28.20;5.10
10192;DHT22;17580;50.850;4.504;2022-07-29T15:36:21;28.20;6.10
10192;DHT22;17580;50.850;4.504;2022-07-29T15:38:48;28.20;6.30
10192;DHT22;17580;50.850;4.504;2022-07-29T15:41:15;28.00;5.30
10192;DHT22;17580;50.850;4.504;2022-07-29T15:43:43;28.00;5.50
10192;DHT22;17580;50.850;4.504;2022-07-29T15:46:13;28.00;6.10
10192;DHT22;17580;50.850;4.504;2022-07-29T15:48:57;27.80;4.70